createdAt,value
2022-08-30T00:00:38.623Z,17.90
2022-08-30T00:03:11.261Z,17.87
2022-08-30T00:05:40.634Z,17.80
2022-08-30T00:08:09.677Z,17.92
2022-08-30T00:10:39.584Z,18.01
2022-08-30T00:13:10.760Z,17.97
2022-08-30T00:15:40.447Z,18.06
2022-08-30T00:18:11.668Z,18.09
2022-08-30T00:20:41.301Z,18.05
2022-08-30T00:23:10.300Z,17.98
2022-08-30T00:25:39.680Z,17.97
2022-08-30T00:28:09.789Z,18.01
2022-08-30T00:30:39.921Z,17.97
2022-08-30T00:33:10.635Z,17.89
2022-08-30T00:35:40.087Z,17.90
2022-08-30T00:38:09.659Z,17.89
2022-08-30T00:40:40.191Z,17.92
2022-08-30T00:43:16.692Z,17.94
2022-08-30T00:45:48.646Z,17.99
2022-08-30T00:48:19.432Z,18.15
2022-08-30T00:50:53.347Z,18.01
2022-08-30T00:53:32.091Z,18.08
2022-08-30T00:56:02.525Z,18.06
2022-08-30T00:58:35.485Z,18.14
2022-08-30T01:01:06.383Z,18.01
2022-08-30T01:03:39.502Z,18.07
2022-08-30T01:06:08.932Z,18.20
2022-08-30T01:08:38.780Z,18.07
2022-08-30T01:11:09.036Z,17.97
2022-08-30T01:13:38.208Z,17.91
2022-08-30T01:16:08.057Z,17.80
2022-08-30T01:18:39.722Z,17.74
2022-08-30T01:21:21.622Z,17.78
2022-08-30T01:23:54.979Z,17.72
2022-08-30T01:26:25.903Z,17.81
2022-08-30T01:28:58.313Z,17.73
2022-08-30T01:31:28.626Z,17.67
2022-08-30T01:33:58.231Z,17.72
2022-08-30T01:36:27.444Z,17.56
2022-08-30T01:38:59.329Z,17.62
2022-08-30T01:41:31.121Z,17.57
2022-08-30T01:44:02.855Z,17.78
2022-08-30T01:46:36.190Z,17.83
2022-08-30T01:49:08.284Z,17.72
2022-08-30T01:51:37.801Z,17.70
2022-08-30T01:54:08.749Z,17.81
2022-08-30T01:56:37.904Z,17.83
2022-08-30T01:59:07.144Z,17.97
2022-08-30T02:01:39.791Z,18.07
2022-08-30T02:04:11.660Z,17.94
2022-08-30T02:06:41.403Z,17.88
2022-08-30T02:09:11.987Z,17.91
2022-08-30T02:11:41.329Z,17.88
2022-08-30T02:14:10.511Z,17.75
2022-08-30T02:16:39.959Z,17.85
2022-08-30T02:19:10.122Z,17.73
2022-08-30T02:21:41.918Z,17.70
2022-08-30T02:24:12.438Z,17.68
2022-08-30T02:26:41.467Z,17.60
2022-08-30T02:29:10.635Z,17.74
2022-08-30T02:31:39.972Z,17.82
2022-08-30T02:34:09.076Z,17.77
2022-08-30T02:36:39.644Z,17.70
2022-08-30T02:39:09.356Z,17.72
2022-08-30T02:41:40.197Z,17.55
2022-08-30T02:44:10.093Z,17.48
2022-08-30T02:46:39.386Z,17.39
2022-08-30T02:49:32.095Z,17.46
2022-08-30T02:51:59.065Z,17.52
2022-08-30T02:54:28.464Z,17.44
2022-08-30T02:56:58.979Z,17.62
2022-08-30T02:59:28.132Z,17.60
2022-08-30T03:01:57.321Z,17.65
2022-08-30T03:04:26.998Z,17.76
2022-08-30T03:06:56.248Z,17.70
2022-08-30T03:09:25.176Z,17.72
2022-08-30T03:11:54.110Z,17.82
2022-08-30T03:14:24.819Z,17.78
2022-08-30T03:16:53.885Z,17.81
2022-08-30T03:19:23.122Z,17.88
2022-08-30T03:21:52.132Z,17.96
2022-08-30T03:24:21.411Z,17.97
2022-08-30T03:26:50.387Z,18.15
2022-08-30T03:29:19.419Z,18.22
2022-08-30T03:31:52.872Z,18.34
2022-08-30T03:34:23.673Z,18.36
2022-08-30T03:36:54.745Z,18.45
2022-08-30T03:39:24.894Z,18.57
2022-08-30T03:41:55.016Z,18.63
2022-08-30T03:44:24.547Z,18.73
2022-08-30T03:46:55.121Z,18.82
2022-08-30T03:49:24.573Z,18.97
2022-08-30T03:51:53.624Z,19.11
2022-08-30T03:54:24.702Z,19.20
2022-08-30T03:56:53.943Z,19.32
2022-08-30T03:59:22.982Z,19.43
2022-08-30T04:01:52.052Z,19.52
2022-08-30T04:04:22.632Z,19.57
2022-08-30T04:06:51.570Z,19.66
2022-08-30T04:09:21.151Z,19.73
2022-08-30T04:11:50.212Z,19.86
2022-08-30T04:14:19.883Z,20.04
2022-08-30T04:16:48.890Z,20.11
2022-08-30T04:19:18.877Z,20.18
2022-08-30T04:21:49.307Z,20.16
2022-08-30T04:24:18.570Z,20.12
2022-08-30T04:26:47.828Z,20.08
2022-08-30T04:29:17.809Z,20.09
2022-08-30T04:31:47.300Z,20.15
2022-08-30T04:34:16.308Z,20.25
2022-08-30T04:36:48.447Z,20.47
2022-08-30T04:39:19.447Z,20.52
2022-08-30T04:41:48.849Z,20.49
2022-08-30T04:44:19.213Z,20.50
2022-08-30T04:46:49.279Z,20.38
2022-08-30T04:49:18.327Z,20.52
2022-08-30T04:51:47.485Z,20.60
2022-08-30T04:54:16.534Z,20.63
2022-08-30T04:56:47.130Z,20.77
2022-08-30T04:59:16.927Z,20.97
2022-08-30T05:01:46.248Z,21.25
2022-08-30T05:04:15.676Z,21.28
2022-08-30T05:06:45.311Z,21.38
2022-08-30T05:09:14.339Z,21.25
2022-08-30T05:11:43.510Z,21.33
2022-08-30T05:14:14.177Z,21.29
2022-08-30T05:16:43.384Z,21.29
2022-08-30T05:19:12.618Z,21.45
2022-08-30T05:21:41.867Z,21.63
2022-08-30T05:24:10.905Z,21.74
2022-08-30T05:26:40.472Z,21.55
2022-08-30T05:29:09.497Z,21.79
2022-08-30T05:31:40.076Z,21.72
2022-08-30T05:34:09.086Z,21.87
2022-08-30T05:36:40.998Z,22.01
2022-08-30T05:39:11.620Z,22.20
2022-08-30T05:41:41.105Z,22.22
2022-08-30T05:44:11.718Z,22.16
2022-08-30T05:46:45.870Z,22.43
2022-08-30T05:49:14.947Z,22.54
2022-08-30T05:51:45.400Z,22.48
2022-08-30T05:54:15.752Z,22.75
2022-08-30T05:56:46.520Z,22.79
2022-08-30T05:59:16.402Z,22.70
2022-08-30T06:01:48.378Z,22.72
2022-08-30T06:04:17.868Z,22.67
2022-08-30T06:06:46.931Z,22.66
2022-08-30T06:09:17.046Z,22.80
2022-08-30T06:11:47.150Z,22.94
2022-08-30T06:14:16.968Z,22.92
2022-08-30T06:16:47.307Z,22.94
2022-08-30T06:19:17.800Z,23.11
2022-08-30T06:21:50.114Z,23.26
2022-08-30T06:24:20.801Z,23.37
2022-08-30T06:26:57.032Z,23.39
2022-08-30T06:29:26.016Z,23.52
2022-08-30T06:31:59.130Z,23.61
2022-08-30T06:34:28.381Z,23.72
2022-08-30T06:36:57.304Z,23.85
2022-08-30T06:39:26.255Z,23.83
2022-08-30T06:41:55.717Z,23.92
2022-08-30T06:44:34.738Z,23.75
2022-08-30T06:47:05.678Z,23.67
2022-08-30T06:49:35.206Z,23.62
2022-08-30T06:52:04.656Z,23.70
2022-08-30T06:54:33.987Z,23.77
2022-08-30T06:57:03.527Z,24.10
2022-08-30T06:59:32.908Z,24.21
2022-08-30T07:02:01.912Z,24.18
2022-08-30T07:04:32.325Z,24.11
2022-08-30T07:07:01.364Z,24.22
2022-08-30T07:12:06.733Z,24.10
2022-08-30T07:14:35.735Z,24.24
2022-08-30T07:17:25.915Z,24.40
2022-08-30T07:19:55.778Z,24.64
2022-08-30T07:22:24.739Z,24.43
2022-08-30T07:24:53.662Z,24.56
2022-08-30T07:27:22.679Z,24.74
2022-08-30T07:29:51.758Z,24.84
2022-08-30T07:32:20.779Z,25.11
2022-08-30T07:34:50.702Z,25.28
2022-08-30T07:37:22.257Z,25.63
2022-08-30T07:39:51.330Z,25.76
2022-08-30T07:42:20.492Z,25.42
2022-08-30T07:44:51.845Z,25.41
2022-08-30T07:47:23.721Z,25.35
2022-08-30T07:49:52.838Z,25.58
2022-08-30T07:52:23.462Z,25.41
2022-08-30T07:54:52.995Z,25.50
2022-08-30T07:57:22.199Z,25.61
2022-08-30T07:59:51.318Z,25.55
2022-08-30T08:02:20.829Z,25.28
2022-08-30T08:04:49.781Z,24.89
2022-08-30T08:07:18.878Z,24.76
2022-08-30T08:09:49.255Z,24.80
2022-08-30T08:12:20.496Z,25.14
2022-08-30T08:14:50.059Z,25.47
2022-08-30T08:17:19.302Z,25.53
2022-08-30T08:19:48.296Z,25.46
2022-08-30T08:22:21.593Z,25.52
2022-08-30T08:24:52.300Z,25.56
2022-08-30T08:27:21.296Z,25.38
2022-08-30T08:29:50.295Z,25.20
2022-08-30T08:32:19.247Z,25.49
2022-08-30T08:34:48.326Z,25.55
2022-08-30T08:37:18.524Z,25.39
2022-08-30T08:39:52.638Z,25.66
2022-08-30T08:42:32.018Z,25.97
2022-08-30T08:45:10.157Z,25.99
2022-08-30T08:47:43.135Z,26.19
2022-08-30T08:50:18.583Z,26.43
2022-08-30T08:53:13.381Z,26.29
2022-08-30T08:55:52.733Z,26.37
2022-08-30T08:58:25.178Z,26.27
2022-08-30T09:00:55.210Z,26.30
2022-08-30T09:03:26.414Z,26.29
2022-08-30T09:05:57.592Z,26.18
2022-08-30T09:08:27.420Z,26.15
2022-08-30T09:11:02.964Z,26.36
2022-08-30T09:13:32.622Z,26.44
2022-08-30T09:16:02.461Z,26.79
2022-08-30T09:18:50.238Z,26.74
2022-08-30T09:21:28.517Z,26.83
2022-08-30T09:24:00.583Z,26.78
2022-08-30T09:26:33.672Z,26.70
2022-08-30T09:29:05.075Z,26.70
2022-08-30T09:31:48.936Z,26.57
2022-08-30T09:34:20.347Z,26.38
2022-08-30T09:36:52.107Z,26.49
2022-08-30T09:39:27.879Z,26.88
2022-08-30T09:42:13.972Z,27.08
2022-08-30T09:44:43.022Z,26.79
2022-08-30T09:47:24.174Z,27.10
2022-08-30T09:50:06.749Z,27.23
2022-08-30T09:52:43.692Z,27.18
2022-08-30T09:55:25.604Z,27.00
2022-08-30T09:58:05.882Z,27.15
2022-08-30T10:00:41.710Z,27.21
2022-08-30T10:03:35.848Z,27.19
2022-08-30T10:06:16.983Z,27.29
2022-08-30T10:08:55.903Z,27.49
2022-08-30T10:11:36.994Z,27.41
2022-08-30T10:14:35.829Z,27.44
2022-08-30T10:17:14.053Z,27.35
2022-08-30T10:19:58.441Z,27.30
2022-08-30T10:22:34.562Z,27.25
2022-08-30T10:25:08.386Z,27.37
2022-08-30T10:27:44.857Z,27.42
2022-08-30T10:30:16.875Z,27.49
2022-08-30T10:32:52.551Z,27.58
2022-08-30T10:35:25.194Z,27.42
2022-08-30T10:37:59.668Z,27.49
2022-08-30T10:40:53.020Z,27.46
2022-08-30T10:43:27.962Z,27.77
2022-08-30T10:46:04.942Z,27.80
2022-08-30T10:48:44.323Z,27.73
2022-08-30T10:51:19.672Z,27.75
2022-08-30T10:53:55.021Z,27.65
2022-08-30T10:56:26.381Z,27.69
2022-08-30T10:58:55.595Z,27.81
2022-08-30T11:01:46.294Z,27.72
2022-08-30T11:04:45.481Z,27.80
2022-08-30T11:07:25.777Z,27.98
2022-08-30T11:10:14.369Z,28.20
2022-08-30T11:12:56.163Z,28.02
2022-08-30T11:15:27.410Z,28.16
2022-08-30T11:18:02.910Z,28.23
2022-08-30T11:20:39.894Z,28.32
2022-08-30T11:23:32.828Z,28.60
2022-08-30T11:26:05.024Z,28.52
2022-08-30T11:29:06.570Z,28.37
2022-08-30T11:31:43.187Z,28.49
2022-08-30T11:34:53.481Z,28.51
2022-08-30T11:37:43.086Z,28.26
2022-08-30T11:40:46.010Z,28.09
2022-08-30T11:43:55.687Z,28.08
2022-08-30T11:46:39.872Z,28.55
2022-08-30T11:49:37.123Z,29.01
2022-08-30T11:52:27.867Z,29.62
2022-08-30T11:55:24.262Z,29.76
2022-08-30T11:58:02.172Z,29.69
2022-08-30T12:00:35.641Z,29.91
2022-08-30T12:03:08.070Z,29.82
2022-08-30T12:05:59.048Z,29.91
2022-08-30T12:09:02.135Z,29.79
2022-08-30T12:12:03.917Z,30.14
2022-08-30T12:14:49.179Z,30.00
2022-08-30T12:17:43.300Z,29.81
2022-08-30T12:20:40.528Z,29.86
2022-08-30T12:23:21.459Z,29.60
2022-08-30T12:25:51.431Z,29.38
2022-08-30T12:28:26.171Z,29.35
2022-08-30T12:30:55.433Z,28.97
2022-08-30T12:33:29.301Z,28.88
2022-08-30T12:35:59.720Z,28.73
2022-08-30T12:38:31.159Z,28.46
2022-08-30T12:41:05.619Z,28.42
2022-08-30T12:43:40.407Z,28.46
2022-08-30T12:46:15.344Z,28.53
2022-08-30T12:48:45.203Z,28.54
2022-08-30T12:51:30.229Z,28.80
2022-08-30T12:54:14.248Z,28.82
2022-08-30T12:57:13.969Z,28.99
2022-08-30T12:59:59.780Z,28.89
2022-08-30T13:02:45.660Z,29.05
2022-08-30T13:05:40.267Z,29.08
2022-08-30T13:08:21.482Z,29.35
2022-08-30T13:10:57.157Z,29.51
2022-08-30T13:13:44.329Z,29.27
2022-08-30T13:16:29.469Z,29.34
2022-08-30T13:19:22.056Z,29.32
2022-08-30T13:21:54.079Z,29.16
2022-08-30T13:24:25.707Z,29.12
2022-08-30T13:26:57.720Z,28.91
2022-08-30T13:29:29.296Z,28.52
2022-08-30T13:31:58.381Z,28.14
2022-08-30T13:34:27.469Z,28.23
2022-08-30T13:36:59.101Z,28.34
2022-08-30T13:39:29.040Z,28.60
2022-08-30T13:42:31.693Z,28.65
2022-08-30T13:44:48.800Z,28.57
2022-08-30T13:47:37.108Z,28.32
2022-08-30T13:50:07.601Z,28.00
2022-08-30T13:52:39.158Z,27.79
2022-08-30T13:55:09.594Z,27.60
2022-08-30T13:57:57.550Z,27.44
2022-08-30T14:00:27.809Z,27.40
2022-08-30T14:03:00.181Z,27.40
2022-08-30T14:05:49.219Z,27.38
2022-08-30T14:11:16.168Z,26.80
2022-08-30T14:16:40.540Z,26.25
2022-08-30T14:19:12.305Z,26.05
2022-08-30T14:21:41.760Z,25.93
2022-08-30T14:24:13.482Z,25.89
2022-08-30T14:26:47.571Z,25.92
2022-08-30T14:29:22.840Z,26.06
2022-08-30T14:31:54.049Z,26.31
2022-08-30T14:34:23.758Z,26.63
2022-08-30T14:36:53.118Z,26.86
2022-08-30T14:39:22.764Z,26.95
2022-08-30T14:41:53.905Z,26.96
2022-08-30T14:44:26.964Z,26.83
2022-08-30T14:46:56.548Z,26.79
2022-08-30T14:49:26.340Z,26.74
2022-08-30T14:51:56.133Z,26.68
2022-08-30T14:54:27.741Z,26.48
2022-08-30T14:56:57.487Z,26.38
2022-08-30T14:59:28.440Z,26.28
2022-08-30T15:01:57.649Z,26.15
2022-08-30T15:04:26.932Z,25.99
2022-08-30T15:06:56.384Z,25.83
2022-08-30T15:09:26.802Z,25.64
2022-08-30T15:11:59.654Z,25.40
2022-08-30T15:14:31.489Z,25.22
2022-08-30T15:17:06.179Z,25.07
2022-08-30T15:19:35.865Z,24.95
2022-08-30T15:22:09.257Z,24.96
2022-08-30T15:24:43.534Z,25.00
2022-08-30T15:27:18.523Z,25.04
2022-08-30T15:29:49.368Z,25.00
2022-08-30T15:32:19.175Z,24.91
2022-08-30T15:34:55.886Z,24.81
2022-08-30T15:37:25.743Z,24.67
2022-08-30T15:39:55.256Z,24.56
2022-08-30T15:42:24.499Z,24.43
2022-08-30T15:44:55.866Z,24.36
2022-08-30T15:47:25.621Z,24.20
2022-08-30T15:49:57.488Z,24.08
2022-08-30T15:52:27.906Z,23.96
2022-08-30T15:54:57.400Z,23.81
2022-08-30T15:57:26.761Z,23.76
2022-08-30T15:59:57.799Z,23.68
2022-08-30T16:02:28.303Z,23.62
2022-08-30T16:04:57.465Z,23.62
2022-08-30T16:07:26.614Z,23.58
2022-08-30T16:09:55.746Z,23.53
2022-08-30T16:12:25.035Z,23.55
2022-08-30T16:14:55.522Z,23.50
2022-08-30T16:17:26.321Z,23.48
2022-08-30T16:19:58.548Z,23.43
2022-08-30T16:22:28.106Z,23.40
2022-08-30T16:24:57.132Z,23.37
2022-08-30T16:27:26.312Z,23.30
2022-08-30T16:29:55.563Z,23.23
2022-08-30T16:32:25.983Z,23.18
2022-08-30T16:34:55.290Z,23.14
2022-08-30T16:37:24.365Z,23.14
2022-08-30T16:39:53.866Z,23.08
2022-08-30T16:42:23.107Z,22.97
2022-08-30T16:44:53.625Z,22.88
2022-08-30T16:47:25.914Z,22.85
2022-08-30T16:49:55.041Z,22.80
2022-08-30T16:52:25.459Z,22.72
2022-08-30T16:54:54.965Z,22.62
2022-08-30T16:57:24.501Z,22.57
2022-08-30T16:59:53.944Z,22.45
2022-08-30T17:02:25.814Z,22.33
2022-08-30T17:04:54.855Z,22.23
2022-08-30T17:07:24.058Z,22.12
2022-08-30T17:09:53.126Z,22.11
2022-08-30T17:12:22.346Z,22.07
2022-08-30T17:14:51.722Z,22.09
2022-08-30T17:17:22.233Z,22.07
2022-08-30T17:19:52.849Z,22.00
2022-08-30T17:22:21.922Z,21.93
2022-08-30T17:24:52.455Z,21.87
2022-08-30T17:27:22.206Z,21.83
2022-08-30T17:29:51.478Z,21.75
2022-08-30T17:32:20.703Z,21.76
2022-08-30T17:34:50.303Z,21.61
2022-08-30T17:37:21.553Z,21.55
2022-08-30T17:39:50.932Z,21.49
2022-08-30T17:42:20.269Z,21.54
2022-08-30T17:44:49.576Z,21.48
2022-08-30T17:47:18.645Z,21.40
2022-08-30T17:49:48.761Z,21.38
2022-08-30T17:52:17.728Z,21.37
2022-08-30T17:54:50.584Z,21.26
2022-08-30T17:57:19.808Z,21.20
2022-08-30T17:59:49.030Z,21.14
2022-08-30T18:02:21.407Z,21.00
2022-08-30T18:04:53.433Z,21.10
2022-08-30T18:07:22.646Z,21.18
2022-08-30T18:09:54.543Z,21.09
2022-08-30T18:12:23.716Z,21.05
2022-08-30T18:14:56.095Z,20.98
2022-08-30T18:17:25.631Z,20.93
2022-08-30T18:19:54.747Z,20.99
2022-08-30T18:22:25.047Z,21.08
2022-08-30T18:24:59.146Z,21.04
2022-08-30T18:27:31.715Z,21.10
2022-08-30T18:30:00.993Z,21.19
2022-08-30T18:32:36.038Z,21.28
2022-08-30T18:35:07.884Z,21.36
2022-08-30T18:37:38.562Z,21.41
2022-08-30T18:40:10.351Z,21.43
2022-08-30T18:42:47.868Z,21.46
2022-08-30T18:45:17.171Z,21.37
2022-08-30T18:47:47.740Z,21.37
2022-08-30T18:50:17.307Z,21.25
2022-08-30T18:52:47.612Z,21.17
2022-08-30T18:55:18.108Z,21.15
2022-08-30T18:57:47.290Z,21.15
2022-08-30T19:00:17.391Z,21.18
2022-08-30T19:02:47.134Z,21.13
2022-08-30T19:05:17.592Z,21.17
2022-08-30T19:07:47.660Z,21.13
2022-08-30T19:10:23.226Z,21.11
2022-08-30T19:12:53.460Z,21.08
2022-08-30T19:15:23.623Z,21.18
2022-08-30T19:17:53.420Z,21.24
2022-08-30T19:20:24.112Z,21.14
2022-08-30T19:23:08.756Z,20.99
2022-08-30T19:25:41.665Z,21.00
2022-08-30T19:28:11.566Z,21.08
2022-08-30T19:30:40.991Z,21.06
2022-08-30T19:33:12.831Z,20.99
2022-08-30T19:35:41.980Z,20.88
2022-08-30T19:38:11.130Z,20.77
2022-08-30T19:40:41.799Z,20.73
2022-08-30T19:43:13.902Z,20.62
2022-08-30T19:45:43.132Z,20.54
2022-08-30T19:48:12.611Z,20.46
2022-08-30T19:50:42.587Z,20.31
2022-08-30T19:53:13.583Z,20.27
2022-08-30T19:55:44.341Z,20.24
2022-08-30T19:58:13.612Z,20.20
2022-08-30T20:00:54.303Z,20.22
2022-08-30T20:03:34.504Z,20.23
2022-08-30T20:06:03.705Z,20.13
2022-08-30T20:08:34.037Z,20.04
2022-08-30T20:11:04.851Z,20.06
2022-08-30T20:13:34.342Z,20.17
2022-08-30T20:16:03.931Z,20.19
2022-08-30T20:18:33.018Z,20.06
2022-08-30T20:21:02.480Z,20.04
2022-08-30T20:23:34.750Z,20.03
2022-08-30T20:26:06.745Z,20.02
2022-08-30T20:28:36.002Z,19.97
2022-08-30T20:31:07.490Z,19.95
2022-08-30T20:33:38.564Z,19.76
2022-08-30T20:36:09.831Z,19.62
2022-08-30T20:38:40.508Z,19.66
2022-08-30T20:41:12.910Z,19.60
2022-08-30T20:43:42.070Z,19.57
2022-08-30T20:46:12.999Z,19.61
2022-08-30T20:48:43.473Z,19.55
2022-08-30T20:51:15.409Z,19.47
2022-08-30T20:53:45.547Z,19.54
2022-08-30T20:56:18.634Z,19.52
2022-08-30T20:58:47.943Z,19.50
2022-08-30T21:01:18.214Z,19.56
2022-08-30T21:03:48.739Z,19.59
2022-08-30T21:06:17.929Z,19.53
2022-08-30T21:08:48.775Z,19.35
2022-08-30T21:11:19.491Z,19.30
2022-08-30T21:13:49.295Z,19.31
2022-08-30T21:16:22.088Z,19.43
2022-08-30T21:18:51.646Z,19.51
2022-08-30T21:21:24.922Z,19.41
2022-08-30T21:23:55.309Z,19.33
2022-08-30T21:26:26.243Z,19.21
2022-08-30T21:28:57.679Z,19.28
2022-08-30T21:31:31.580Z,19.20
2022-08-30T21:34:01.393Z,19.12
2022-08-30T21:36:47.643Z,19.02
2022-08-30T21:39:20.350Z,18.98
2022-08-30T21:41:52.366Z,18.97
2022-08-30T21:44:23.721Z,19.02
2022-08-30T21:46:54.586Z,19.00
2022-08-30T21:49:25.179Z,19.06
2022-08-30T21:51:55.526Z,19.12
2022-08-30T21:54:25.426Z,19.18
2022-08-30T21:57:05.047Z,19.24
2022-08-30T21:59:34.619Z,19.35
2022-08-30T22:02:03.786Z,19.42
2022-08-30T22:04:32.745Z,19.47
2022-08-30T22:07:03.253Z,19.53
2022-08-30T22:09:32.316Z,19.51
2022-08-30T22:12:02.734Z,19.50
2022-08-30T22:14:32.995Z,19.52
2022-08-30T22:17:02.201Z,19.51
2022-08-30T22:19:31.516Z,19.53
2022-08-30T22:22:02.864Z,19.52
2022-08-30T22:24:33.050Z,19.57
2022-08-30T22:27:05.196Z,19.61
2022-08-30T22:29:34.287Z,19.63
2022-08-30T22:32:03.368Z,19.60
2022-08-30T22:34:33.165Z,19.63
2022-08-30T22:37:02.274Z,19.62
2022-08-30T22:39:31.255Z,19.60
2022-08-30T22:42:00.232Z,19.56
2022-08-30T22:44:30.665Z,19.55
2022-08-30T22:46:59.669Z,19.56
2022-08-30T22:49:28.723Z,19.53
2022-08-30T22:51:57.744Z,19.52
2022-08-30T22:54:26.825Z,19.49
2022-08-30T22:56:56.029Z,19.45
2022-08-30T22:59:31.398Z,19.38
2022-08-30T23:02:03.061Z,19.33
2022-08-30T23:04:32.587Z,19.32
2022-08-30T23:07:01.765Z,19.35
2022-08-30T23:09:31.337Z,19.34
2022-08-30T23:12:00.354Z,19.22
2022-08-30T23:14:29.326Z,19.11
2022-08-30T23:16:58.287Z,19.07
2022-08-30T23:19:28.694Z,19.03
2022-08-30T23:21:57.671Z,18.94
2022-08-30T23:24:48.908Z,18.88
2022-08-30T23:27:36.357Z,18.85
2022-08-30T23:30:23.693Z,18.86
2022-08-30T23:33:10.257Z,18.92
2022-08-30T23:35:57.823Z,18.93
2022-08-30T23:38:44.174Z,18.89
2022-08-30T23:41:34.116Z,18.89
2022-08-30T23:44:21.050Z,18.86
2022-08-30T23:47:07.464Z,18.72
2022-08-30T23:49:53.564Z,18.60
2022-08-30T23:52:41.058Z,18.58
2022-08-30T23:55:27.624Z,18.62
2022-08-30T23:58:13.964Z,18.58
